createdAt,value
2023-05-10T00:00:08.431Z,99.99
2023-05-10T00:01:08.429Z,99.99
2023-05-10T00:02:08.460Z,99.99
2023-05-10T00:03:08.509Z,99.99
2023-05-10T00:04:08.472Z,99.99
2023-05-10T00:05:08.442Z,99.99
2023-05-10T00:06:08.424Z,99.99
2023-05-10T00:07:08.424Z,99.99
2023-05-10T00:08:08.425Z,99.99
2023-05-10T00:09:08.416Z,99.99
2023-05-10T00:10:08.420Z,99.99
2023-05-10T00:11:08.436Z,99.99
2023-05-10T00:12:08.415Z,99.99
2023-05-10T00:13:08.464Z,99.99
2023-05-10T00:14:08.613Z,99.99
2023-05-10T00:15:08.417Z,99.99
2023-05-10T00:16:08.440Z,99.99
2023-05-10T00:17:08.422Z,99.99
2023-05-10T00:18:08.480Z,99.99
2023-05-10T00:19:08.408Z,99.99
2023-05-10T00:20:08.406Z,99.99
2023-05-10T00:21:08.399Z,99.99
2023-05-10T00:22:08.403Z,99.99
2023-05-10T00:23:08.398Z,99.99
2023-05-10T00:24:08.397Z,99.99
2023-05-10T00:25:08.393Z,99.99
2023-05-10T00:26:08.392Z,99.99
2023-05-10T00:27:08.505Z,99.99
2023-05-10T00:28:08.401Z,99.99
2023-05-10T00:29:08.393Z,99.99
2023-05-10T00:30:08.385Z,99.99
2023-05-10T00:31:08.860Z,99.99
2023-05-10T00:32:08.479Z,99.99
2023-05-10T00:33:08.431Z,99.99
2023-05-10T00:34:08.378Z,99.99
2023-05-10T00:35:08.379Z,99.99
2023-05-10T00:36:08.382Z,99.99
2023-05-10T00:37:08.407Z,99.99
2023-05-10T00:38:08.377Z,99.99
2023-05-10T00:39:08.385Z,99.99
2023-05-10T00:40:08.398Z,99.99
2023-05-10T00:41:08.397Z,99.99
2023-05-10T00:42:08.371Z,99.99
2023-05-10T00:43:08.390Z,99.99
2023-05-10T00:44:08.368Z,99.99
2023-05-10T00:45:08.369Z,99.99
2023-05-10T00:46:08.411Z,99.99
2023-05-10T00:47:08.359Z,99.99
2023-05-10T00:48:08.406Z,99.99
2023-05-10T00:49:08.372Z,99.99
2023-05-10T00:50:08.365Z,99.99
2023-05-10T00:51:08.356Z,99.99
2023-05-10T00:52:08.353Z,99.99
2023-05-10T00:53:08.350Z,99.99
2023-05-10T00:54:08.351Z,99.99
2023-05-10T00:55:08.353Z,99.99
2023-05-10T00:56:08.348Z,99.99
2023-05-10T00:57:08.351Z,99.99
2023-05-10T00:58:08.353Z,99.99
2023-05-10T00:59:08.366Z,99.99
2023-05-10T01:00:08.338Z,99.99
2023-05-10T01:01:08.367Z,99.99
2023-05-10T01:02:08.363Z,99.99
2023-05-10T01:03:08.430Z,99.99
2023-05-10T01:04:08.339Z,99.99
2023-05-10T01:05:08.397Z,99.99
2023-05-10T01:06:08.331Z,99.99
2023-05-10T01:07:08.330Z,99.99
2023-05-10T01:08:08.339Z,99.99
2023-05-10T01:09:08.340Z,99.99
2023-05-10T01:10:08.347Z,99.99
2023-05-10T01:11:08.328Z,99.99
2023-05-10T01:12:08.544Z,99.99
2023-05-10T01:13:08.367Z,99.99
2023-05-10T01:14:08.318Z,99.99
2023-05-10T01:15:08.341Z,99.99
2023-05-10T01:16:08.389Z,99.99
2023-05-10T01:17:08.332Z,99.99
2023-05-10T01:18:08.321Z,99.99
2023-05-10T01:19:08.314Z,99.99
2023-05-10T01:20:08.311Z,99.99
2023-05-10T01:21:08.310Z,99.99
2023-05-10T01:22:08.309Z,99.99
2023-05-10T01:23:08.306Z,99.99
2023-05-10T01:24:08.312Z,99.99
2023-05-10T01:25:08.314Z,99.99
2023-05-10T01:26:08.302Z,99.99
2023-05-10T01:27:08.302Z,99.99
2023-05-10T01:28:08.295Z,99.99
2023-05-10T01:29:08.305Z,99.99
2023-05-10T01:30:15.694Z,99.99
2023-05-10T01:31:08.641Z,99.99
2023-05-10T01:32:08.293Z,99.99
2023-05-10T01:33:08.362Z,99.99
2023-05-10T01:34:08.295Z,99.99
2023-05-10T01:35:08.290Z,99.99
2023-05-10T01:36:08.285Z,99.99
2023-05-10T01:37:08.296Z,99.99
2023-05-10T01:38:08.292Z,99.99
2023-05-10T01:39:08.286Z,99.99
2023-05-10T01:40:08.275Z,99.99
2023-05-10T01:41:08.272Z,99.99
2023-05-10T01:42:08.271Z,99.99
2023-05-10T01:43:08.272Z,99.99
2023-05-10T01:44:08.272Z,99.99
2023-05-10T01:45:08.268Z,99.99
2023-05-10T01:46:08.341Z,99.99
2023-05-10T01:47:08.307Z,99.99
2023-05-10T01:48:08.408Z,99.99
2023-05-10T01:49:08.272Z,99.99
2023-05-10T01:50:08.266Z,99.99
2023-05-10T01:51:08.256Z,99.99
2023-05-10T01:52:08.256Z,99.99
2023-05-10T01:53:08.257Z,99.99
2023-05-10T01:54:08.246Z,99.99
2023-05-10T01:55:08.251Z,99.99
2023-05-10T01:56:08.271Z,99.99
2023-05-10T01:57:08.244Z,99.99
2023-05-10T01:58:08.241Z,99.99
2023-05-10T01:59:08.239Z,99.99
2023-05-10T02:00:08.238Z,99.99
2023-05-10T02:01:08.262Z,99.99
2023-05-10T02:02:08.247Z,99.99
2023-05-10T02:03:08.347Z,99.99
2023-05-10T02:04:08.380Z,99.99
2023-05-10T02:05:08.249Z,99.99
2023-05-10T02:06:08.224Z,99.99
2023-05-10T02:07:08.242Z,99.99
2023-05-10T02:08:08.229Z,99.99
2023-05-10T02:09:08.232Z,99.99
2023-05-10T02:10:08.226Z,99.99
2023-05-10T02:11:08.224Z,99.99
2023-05-10T02:12:08.216Z,99.99
2023-05-10T02:13:08.236Z,99.99
2023-05-10T02:14:08.212Z,99.99
2023-05-10T02:15:08.212Z,99.99
2023-05-10T02:16:08.282Z,99.99
2023-05-10T02:17:08.214Z,99.99
2023-05-10T02:18:08.220Z,99.99
2023-05-10T02:19:08.226Z,99.99
2023-05-10T02:20:08.197Z,99.99
2023-05-10T02:21:08.204Z,99.99
2023-05-10T02:22:08.201Z,99.99
2023-05-10T02:23:08.204Z,99.99
2023-05-10T02:24:08.193Z,99.99
2023-05-10T02:25:08.196Z,99.99
2023-05-10T02:26:08.190Z,99.99
2023-05-10T02:27:08.189Z,99.99
2023-05-10T02:28:08.198Z,99.99
2023-05-10T02:29:08.187Z,99.99
2023-05-10T02:30:08.185Z,99.99
2023-05-10T02:31:08.185Z,99.99
2023-05-10T02:32:08.230Z,99.99
2023-05-10T02:33:08.182Z,99.99
2023-05-10T02:34:08.176Z,99.99
2023-05-10T02:35:08.198Z,99.99
2023-05-10T02:36:08.634Z,99.99
2023-05-10T02:37:08.171Z,99.99
2023-05-10T02:38:08.190Z,99.99
2023-05-10T02:39:08.170Z,99.99
2023-05-10T02:40:08.175Z,99.99
2023-05-10T02:41:08.168Z,99.99
2023-05-10T02:42:08.160Z,99.99
2023-05-10T02:43:08.198Z,99.99
2023-05-10T02:44:08.163Z,99.99
2023-05-10T02:45:08.167Z,99.99
2023-05-10T02:46:08.192Z,99.99
2023-05-10T02:47:08.154Z,99.99
2023-05-10T02:48:08.205Z,99.99
2023-05-10T02:49:08.151Z,99.99
2023-05-10T02:50:08.152Z,99.99
2023-05-10T02:51:08.175Z,99.99
2023-05-10T02:52:08.152Z,99.99
2023-05-10T02:53:08.145Z,99.99
2023-05-10T02:54:08.148Z,99.99
2023-05-10T02:55:08.142Z,99.99
2023-05-10T02:56:08.164Z,99.99
2023-05-10T02:57:08.137Z,99.99
2023-05-10T02:58:08.141Z,99.99
2023-05-10T02:59:08.134Z,99.99
2023-05-10T03:00:08.131Z,99.99
2023-05-10T03:01:08.246Z,99.99
2023-05-10T03:02:08.126Z,99.99
2023-05-10T03:03:08.164Z,99.99
2023-05-10T03:04:08.172Z,99.99
2023-05-10T03:05:08.128Z,99.99
2023-05-10T03:06:08.117Z,99.99
2023-05-10T03:07:08.140Z,99.99
2023-05-10T03:08:08.122Z,99.99
2023-05-10T03:09:08.120Z,99.99
2023-05-10T03:10:08.119Z,99.99
2023-05-10T03:11:08.124Z,99.99
2023-05-10T03:12:08.115Z,99.99
2023-05-10T03:13:08.166Z,99.99
2023-05-10T03:14:08.109Z,99.99
2023-05-10T03:15:08.107Z,99.99
2023-05-10T03:16:08.170Z,99.99
2023-05-10T03:17:08.118Z,99.99
2023-05-10T03:18:08.120Z,99.99
2023-05-10T03:19:08.101Z,99.99
2023-05-10T03:20:08.118Z,99.99
2023-05-10T03:21:08.101Z,99.99
2023-05-10T03:22:08.095Z,99.99
2023-05-10T03:23:08.121Z,99.99
2023-05-10T03:24:08.092Z,99.99
2023-05-10T03:25:08.092Z,99.99
2023-05-10T03:26:08.091Z,99.99
2023-05-10T03:27:08.090Z,99.99
2023-05-10T03:28:08.089Z,99.99
2023-05-10T03:29:08.116Z,99.99
2023-05-10T03:30:08.081Z,99.99
2023-05-10T03:31:08.122Z,99.99
2023-05-10T03:32:08.081Z,99.99
2023-05-10T03:33:08.148Z,99.99
2023-05-10T03:34:08.096Z,99.99
2023-05-10T03:35:08.080Z,99.99
2023-05-10T03:36:08.084Z,99.99
2023-05-10T03:37:08.078Z,99.99
2023-05-10T03:38:08.080Z,99.99
2023-05-10T03:39:08.093Z,99.99
2023-05-10T03:40:08.065Z,99.99
2023-05-10T03:41:08.525Z,99.99
2023-05-10T03:42:08.066Z,99.99
2023-05-10T03:43:08.065Z,99.99
2023-05-10T03:44:08.063Z,99.99
2023-05-10T03:45:08.063Z,99.99
2023-05-10T03:46:08.061Z,99.99
2023-05-10T03:47:08.101Z,99.99
2023-05-10T03:48:08.154Z,99.99
2023-05-10T03:49:08.059Z,99.99
2023-05-10T03:50:08.064Z,99.99
2023-05-10T03:51:08.050Z,99.99
2023-05-10T03:52:08.057Z,99.99
2023-05-10T03:53:08.061Z,99.99
2023-05-10T03:54:08.065Z,99.99
2023-05-10T03:55:08.065Z,99.99
2023-05-10T03:56:08.047Z,99.99
2023-05-10T03:57:08.042Z,99.99
2023-05-10T03:58:08.040Z,99.99
2023-05-10T03:59:08.043Z,99.99
2023-05-10T04:00:08.034Z,99.99
2023-05-10T04:01:08.039Z,99.99
2023-05-10T04:02:08.143Z,99.99
2023-05-10T04:03:08.276Z,99.99
2023-05-10T04:04:08.084Z,99.99
2023-05-10T04:05:08.031Z,99.99
2023-05-10T04:06:08.094Z,99.99
2023-05-10T04:07:08.026Z,99.99
2023-05-10T04:08:08.020Z,99.99
2023-05-10T04:09:08.021Z,99.99
2023-05-10T04:10:08.053Z,99.99
2023-05-10T04:11:08.039Z,99.99
2023-05-10T04:12:08.994Z,99.99
2023-05-10T04:13:08.056Z,99.99
2023-05-10T04:14:08.019Z,99.99
2023-05-10T04:15:08.011Z,99.99
2023-05-10T04:16:08.020Z,99.99
2023-05-10T04:17:08.068Z,99.99
2023-05-10T04:18:08.841Z,99.99
2023-05-10T04:19:08.011Z,99.99
2023-05-10T04:20:08.002Z,99.99
2023-05-10T04:21:08.012Z,99.99
2023-05-10T04:22:08.005Z,99.99
2023-05-10T04:23:08.006Z,99.99
2023-05-10T04:24:08.003Z,99.99
2023-05-10T04:25:08.003Z,99.99
2023-05-10T04:26:07.992Z,99.99
2023-05-10T04:27:08.166Z,99.99
2023-05-10T04:28:07.991Z,99.99
2023-05-10T04:29:08.005Z,99.99
2023-05-10T04:30:07.986Z,99.99
2023-05-10T04:31:08.066Z,99.99
2023-05-10T04:32:07.982Z,99.99
2023-05-10T04:33:08.079Z,99.99
2023-05-10T04:34:07.979Z,99.99
2023-05-10T04:35:07.979Z,99.99
2023-05-10T04:36:08.001Z,99.99
2023-05-10T04:37:07.977Z,99.99
2023-05-10T04:38:07.973Z,99.99
2023-05-10T04:39:07.968Z,99.99
2023-05-10T04:40:07.971Z,99.99
2023-05-10T04:41:07.992Z,99.99
2023-05-10T04:42:07.982Z,99.99
2023-05-10T04:43:07.996Z,99.99
2023-05-10T04:44:07.977Z,99.99
2023-05-10T04:45:07.959Z,99.99
2023-05-10T04:46:08.352Z,99.99
2023-05-10T04:47:09.869Z,99.99
2023-05-10T04:48:07.961Z,99.99
2023-05-10T04:49:07.960Z,99.99
2023-05-10T04:50:07.954Z,99.99
2023-05-10T04:51:07.960Z,99.99
2023-05-10T04:52:07.949Z,99.99
2023-05-10T04:53:07.949Z,99.99
2023-05-10T04:54:07.964Z,99.99
2023-05-10T04:55:07.942Z,99.99
2023-05-10T04:56:07.954Z,99.99
2023-05-10T04:57:07.949Z,99.99
2023-05-10T04:58:07.939Z,99.99
2023-05-10T04:59:07.966Z,99.99
2023-05-10T05:00:07.958Z,99.99
2023-05-10T05:01:07.941Z,99.99
2023-05-10T05:02:07.962Z,99.99
2023-05-10T05:03:08.009Z,99.99
2023-05-10T05:04:07.929Z,99.99
2023-05-10T05:05:07.930Z,99.99
2023-05-10T05:06:07.930Z,99.99
2023-05-10T05:07:07.930Z,99.99
2023-05-10T05:08:07.928Z,99.99
2023-05-10T05:09:07.922Z,99.99
2023-05-10T05:10:07.923Z,99.99
2023-05-10T05:11:07.927Z,99.99
2023-05-10T05:12:07.943Z,99.99
2023-05-10T05:13:08.075Z,99.99
2023-05-10T05:14:07.910Z,99.99
2023-05-10T05:15:09.692Z,99.99
2023-05-10T05:16:07.933Z,99.99
2023-05-10T05:17:07.904Z,99.99
2023-05-10T05:18:07.959Z,99.99
2023-05-10T05:19:07.904Z,99.99
2023-05-10T05:20:07.912Z,99.99
2023-05-10T05:21:07.909Z,99.99
2023-05-10T05:22:07.904Z,99.99
2023-05-10T05:23:07.903Z,99.99
2023-05-10T05:24:07.899Z,99.99
2023-05-10T05:25:07.897Z,99.99
2023-05-10T05:26:07.892Z,99.99
2023-05-10T05:27:07.892Z,99.99
2023-05-10T05:28:07.897Z,99.99
2023-05-10T05:29:07.888Z,99.99
2023-05-10T05:30:07.888Z,99.99
2023-05-10T05:31:07.946Z,99.99
2023-05-10T05:32:07.996Z,99.99
2023-05-10T05:33:07.931Z,99.99
2023-05-10T05:34:07.879Z,99.99
2023-05-10T05:35:07.883Z,99.99
2023-05-10T05:36:07.875Z,99.99
2023-05-10T05:37:07.880Z,99.99
2023-05-10T05:38:07.870Z,99.99
2023-05-10T05:39:07.884Z,99.99
2023-05-10T05:40:07.877Z,99.99
2023-05-10T05:41:07.870Z,99.99
2023-05-10T05:42:07.869Z,99.99
2023-05-10T05:43:07.881Z,99.99
2023-05-10T05:44:07.865Z,99.99
2023-05-10T05:45:07.857Z,99.99
2023-05-10T05:46:07.935Z,99.99
2023-05-10T05:47:07.887Z,99.99
2023-05-10T05:48:07.946Z,99.99
2023-05-10T05:49:07.851Z,99.99
2023-05-10T05:50:07.851Z,99.99
2023-05-10T05:51:07.860Z,99.99
2023-05-10T05:52:07.848Z,99.99
2023-05-10T05:53:07.843Z,99.99
2023-05-10T05:54:07.851Z,99.99
2023-05-10T05:55:07.844Z,99.99
2023-05-10T05:56:07.843Z,99.99
2023-05-10T05:57:07.852Z,99.99
2023-05-10T05:58:07.846Z,99.99
2023-05-10T05:59:07.841Z,99.99
2023-05-10T06:00:07.842Z,99.99
2023-05-10T06:01:07.833Z,99.99
2023-05-10T06:02:07.872Z,99.99
2023-05-10T06:03:07.922Z,99.99
2023-05-10T06:04:07.897Z,99.99
2023-05-10T06:05:07.832Z,99.99
2023-05-10T06:06:07.830Z,99.99
2023-05-10T06:07:07.823Z,99.99
2023-05-10T06:08:07.828Z,99.99
2023-05-10T06:09:07.822Z,99.99
2023-05-10T06:10:07.821Z,99.99
2023-05-10T06:11:07.818Z,99.99
2023-05-10T06:12:07.824Z,99.99
2023-05-10T06:13:07.881Z,99.99
2023-05-10T06:14:07.816Z,99.99
2023-05-10T06:15:07.812Z,99.99
2023-05-10T06:16:07.842Z,99.99
2023-05-10T06:17:07.837Z,99.99
2023-05-10T06:18:07.842Z,99.99
2023-05-10T06:19:07.824Z,99.99
2023-05-10T06:20:07.806Z,99.99
2023-05-10T06:21:07.800Z,99.99
2023-05-10T06:22:07.800Z,99.99
2023-05-10T06:23:07.798Z,99.99
2023-05-10T06:24:07.805Z,99.99
2023-05-10T06:25:07.796Z,99.99
2023-05-10T06:26:07.805Z,99.99
2023-05-10T06:27:07.801Z,99.99
2023-05-10T06:28:07.789Z,99.99
2023-05-10T06:29:07.787Z,99.99
2023-05-10T06:30:12.867Z,99.99
2023-05-10T06:31:07.866Z,99.99
2023-05-10T06:32:07.781Z,99.99
2023-05-10T06:33:07.845Z,99.99
2023-05-10T06:34:07.777Z,99.99
2023-05-10T06:35:07.794Z,99.99
2023-05-10T06:36:07.779Z,99.99
2023-05-10T06:37:07.773Z,99.99
2023-05-10T06:38:07.800Z,99.99
2023-05-10T06:39:07.774Z,99.99
2023-05-10T06:40:07.783Z,99.99
2023-05-10T06:41:07.769Z,99.99
2023-05-10T06:42:07.790Z,99.99
2023-05-10T06:43:07.764Z,99.99
2023-05-10T06:44:07.781Z,99.99
2023-05-10T06:45:07.780Z,99.99
2023-05-10T06:46:07.787Z,99.99
2023-05-10T06:47:07.756Z,99.99
2023-05-10T06:48:07.770Z,99.99
2023-05-10T06:49:07.769Z,99.99
2023-05-10T06:50:07.756Z,99.99
2023-05-10T06:51:08.222Z,99.99
2023-05-10T06:52:07.752Z,99.99
2023-05-10T06:53:07.746Z,99.99
2023-05-10T06:54:07.752Z,99.99
2023-05-10T06:55:07.760Z,99.99
2023-05-10T06:56:07.739Z,99.99
2023-05-10T06:57:16.054Z,99.99
2023-05-10T06:58:07.740Z,99.99
2023-05-10T06:59:07.915Z,99.99
2023-05-10T07:00:07.852Z,99.99
2023-05-10T07:01:07.976Z,99.99
2023-05-10T07:02:07.835Z,99.99
2023-05-10T07:03:07.763Z,99.99
2023-05-10T07:04:07.730Z,99.99
2023-05-10T07:05:07.787Z,99.99
2023-05-10T07:06:08.622Z,99.99
2023-05-10T07:07:07.767Z,99.99
2023-05-10T07:08:07.745Z,99.99
2023-05-10T07:09:07.721Z,99.99
2023-05-10T07:10:07.730Z,99.99
2023-05-10T07:11:07.715Z,99.99
2023-05-10T07:12:09.581Z,99.99
2023-05-10T07:13:07.894Z,99.99
2023-05-10T07:14:07.726Z,99.99
2023-05-10T07:15:07.718Z,99.99
2023-05-10T07:16:07.729Z,99.99
2023-05-10T07:17:07.771Z,99.99
2023-05-10T07:18:07.912Z,99.99
2023-05-10T07:19:07.698Z,99.99
2023-05-10T07:20:07.707Z,99.99
2023-05-10T07:21:07.724Z,99.99
2023-05-10T07:22:07.696Z,99.99
2023-05-10T07:23:07.710Z,99.99
2023-05-10T07:24:07.693Z,99.99
2023-05-10T07:25:07.697Z,99.99
2023-05-10T07:26:07.690Z,99.99
2023-05-10T07:27:07.687Z,99.99
2023-05-10T07:28:07.688Z,99.99
2023-05-10T07:29:07.689Z,99.99
2023-05-10T07:30:07.678Z,99.99
2023-05-10T07:31:07.712Z,99.99
2023-05-10T07:32:07.766Z,99.99
2023-05-10T07:33:07.702Z,99.99
2023-05-10T07:34:07.678Z,99.99
2023-05-10T07:35:07.674Z,99.99
2023-05-10T07:36:07.690Z,99.99
2023-05-10T07:37:07.672Z,99.99
2023-05-10T07:38:07.681Z,99.99
2023-05-10T07:39:07.739Z,99.99
2023-05-10T07:40:07.673Z,99.99
2023-05-10T07:41:07.662Z,99.99
2023-05-10T07:42:07.661Z,99.99
2023-05-10T07:43:07.702Z,99.99
2023-05-10T07:44:07.652Z,99.99
2023-05-10T07:45:07.655Z,99.99
2023-05-10T07:46:07.694Z,99.99
2023-05-10T07:47:07.656Z,99.99
2023-05-10T07:48:07.679Z,99.99
2023-05-10T07:49:07.649Z,99.99
2023-05-10T07:50:07.643Z,99.99
2023-05-10T07:51:07.644Z,99.99
2023-05-10T07:52:07.645Z,99.99
2023-05-10T07:53:07.643Z,99.99
2023-05-10T07:54:07.645Z,99.99
2023-05-10T07:55:07.800Z,99.99
2023-05-10T07:56:08.082Z,99.99
2023-05-10T07:57:07.642Z,99.99
2023-05-10T07:58:07.632Z,99.99
2023-05-10T07:59:07.647Z,99.99
2023-05-10T08:00:07.636Z,99.99
2023-05-10T08:01:07.626Z,99.99
2023-05-10T08:02:07.676Z,99.99
2023-05-10T08:03:07.724Z,99.99
2023-05-10T08:04:07.802Z,99.99
2023-05-10T08:05:07.658Z,99.99
2023-05-10T08:06:07.622Z,99.99
2023-05-10T08:07:07.611Z,99.99
2023-05-10T08:08:07.625Z,99.99
2023-05-10T08:09:07.618Z,99.99
2023-05-10T08:10:07.607Z,99.99
2023-05-10T08:11:07.643Z,99.99
2023-05-10T08:12:07.613Z,99.99
2023-05-10T08:13:07.609Z,99.99
2023-05-10T08:14:07.615Z,99.99
2023-05-10T08:15:07.639Z,99.99
2023-05-10T08:16:07.690Z,99.99
2023-05-10T08:17:07.599Z,99.99
2023-05-10T08:18:07.638Z,99.99
2023-05-10T08:19:07.690Z,99.99
2023-05-10T08:20:07.613Z,99.99
2023-05-10T08:21:07.587Z,99.99
2023-05-10T08:22:07.596Z,99.99
2023-05-10T08:23:07.584Z,99.99
2023-05-10T08:24:07.605Z,99.99
2023-05-10T08:25:07.587Z,99.99
2023-05-10T08:26:07.591Z,99.99
2023-05-10T08:27:07.625Z,99.99
2023-05-10T08:28:09.235Z,99.99
2023-05-10T08:29:07.586Z,99.99
2023-05-10T08:30:07.578Z,99.99
2023-05-10T08:31:07.619Z,99.99
2023-05-10T08:32:07.578Z,99.99
2023-05-10T08:33:07.600Z,99.99
2023-05-10T08:34:07.573Z,99.99
2023-05-10T08:35:07.571Z,99.99
2023-05-10T08:36:07.575Z,99.99
2023-05-10T08:37:07.561Z,99.99
2023-05-10T08:38:07.561Z,99.99
2023-05-10T08:39:13.511Z,99.99
2023-05-10T08:40:07.636Z,99.99
2023-05-10T08:41:07.555Z,99.99
2023-05-10T08:42:07.558Z,99.99
2023-05-10T08:43:07.582Z,99.99
2023-05-10T08:44:07.551Z,99.99
2023-05-10T08:45:07.556Z,99.99
2023-05-10T08:46:07.579Z,99.99
2023-05-10T08:47:07.846Z,99.99
2023-05-10T08:48:07.628Z,99.99
2023-05-10T08:49:07.550Z,99.99
2023-05-10T08:50:07.550Z,99.99
2023-05-10T08:51:07.550Z,99.99
2023-05-10T08:52:07.547Z,99.99
2023-05-10T08:53:07.547Z,99.99
2023-05-10T08:54:07.536Z,99.99
2023-05-10T08:55:07.538Z,99.99
2023-05-10T08:56:07.897Z,99.99
2023-05-10T08:57:07.548Z,99.99
2023-05-10T08:58:07.542Z,99.99
2023-05-10T08:59:07.558Z,99.99
2023-05-10T09:00:07.528Z,99.99
2023-05-10T09:01:07.595Z,99.99
2023-05-10T09:02:07.524Z,99.99
2023-05-10T09:03:07.592Z,99.99
2023-05-10T09:04:07.623Z,99.99
2023-05-10T09:05:07.553Z,99.99
2023-05-10T09:06:07.518Z,99.99
2023-05-10T09:07:07.518Z,99.99
2023-05-10T09:08:07.517Z,99.99
2023-05-10T09:09:07.537Z,99.99
2023-05-10T09:10:07.514Z,99.99
2023-05-10T09:11:07.515Z,99.99
2023-05-10T09:12:07.518Z,99.99
2023-05-10T09:13:07.513Z,99.99
2023-05-10T09:14:07.511Z,99.99
2023-05-10T09:15:07.532Z,99.99
2023-05-10T09:16:20.351Z,99.99
2023-05-10T09:17:07.583Z,99.99
2023-05-10T09:18:07.524Z,99.99
2023-05-10T09:19:07.590Z,99.99
2023-05-10T09:20:07.495Z,99.99
2023-05-10T09:21:07.509Z,99.99
2023-05-10T09:22:07.493Z,99.99
2023-05-10T09:23:07.494Z,99.99
2023-05-10T09:24:07.490Z,99.99
2023-05-10T09:25:07.489Z,99.99
2023-05-10T09:26:07.490Z,99.99
2023-05-10T09:27:07.485Z,99.99
2023-05-10T09:28:07.482Z,99.99
2023-05-10T09:29:07.492Z,99.99
2023-05-10T09:30:07.506Z,99.99
2023-05-10T09:31:07.556Z,99.99
2023-05-10T09:32:07.477Z,99.99
2023-05-10T09:33:07.509Z,99.99
2023-05-10T09:34:07.472Z,99.99
2023-05-10T09:35:07.478Z,99.99
2023-05-10T09:36:07.474Z,99.99
2023-05-10T09:37:07.484Z,99.99
2023-05-10T09:38:07.480Z,99.99
2023-05-10T09:39:07.465Z,99.99
2023-05-10T09:40:07.471Z,99.99
2023-05-10T09:41:07.468Z,99.99
2023-05-10T09:42:07.483Z,99.99
2023-05-10T09:43:07.470Z,99.99
2023-05-10T09:44:07.459Z,99.99
2023-05-10T09:45:07.460Z,99.99
2023-05-10T09:46:07.483Z,99.99
2023-05-10T09:47:07.485Z,99.99
2023-05-10T09:48:07.758Z,99.99
2023-05-10T09:49:07.451Z,99.99
2023-05-10T09:50:07.450Z,99.99
2023-05-10T09:51:07.445Z,99.99
2023-05-10T09:52:07.461Z,99.99
2023-05-10T09:53:07.450Z,99.99
2023-05-10T09:54:07.441Z,99.99
2023-05-10T09:55:07.451Z,99.99
2023-05-10T09:56:07.443Z,99.99
2023-05-10T09:57:07.445Z,99.99
2023-05-10T09:58:07.467Z,99.99
2023-05-10T09:59:07.439Z,99.99
2023-05-10T10:00:07.432Z,99.99
2023-05-10T10:01:07.461Z,99.99
2023-05-10T10:02:07.453Z,99.99
2023-05-10T10:03:07.522Z,99.99
2023-05-10T10:04:07.489Z,99.99
2023-05-10T10:05:07.505Z,99.99
2023-05-10T10:06:15.884Z,99.99
2023-05-10T10:07:07.422Z,99.99
2023-05-10T10:08:07.442Z,99.99
2023-05-10T10:09:07.422Z,99.99
2023-05-10T10:10:07.422Z,99.99
2023-05-10T10:11:07.415Z,99.99
2023-05-10T10:12:07.411Z,99.99
2023-05-10T10:13:07.413Z,99.99
2023-05-10T10:14:07.410Z,99.99
2023-05-10T10:15:07.451Z,99.99
2023-05-10T10:16:07.467Z,99.99
2023-05-10T10:17:08.907Z,99.99
2023-05-10T10:18:07.434Z,99.99
2023-05-10T10:19:07.497Z,99.99
2023-05-10T10:20:08.658Z,99.99
2023-05-10T10:21:07.402Z,99.99
2023-05-10T10:22:07.436Z,99.99
2023-05-10T10:23:07.399Z,99.99
2023-05-10T10:24:07.392Z,99.99
2023-05-10T10:25:07.428Z,99.99
2023-05-10T10:26:07.397Z,99.99
2023-05-10T10:27:07.404Z,99.99
2023-05-10T10:28:07.394Z,99.99
2023-05-10T10:29:07.388Z,99.99
2023-05-10T10:30:07.397Z,99.99
2023-05-10T10:31:07.421Z,99.99
2023-05-10T10:32:07.388Z,99.99
2023-05-10T10:33:16.505Z,99.99
2023-05-10T10:34:07.381Z,99.99
2023-05-10T10:35:07.465Z,99.99
2023-05-10T10:36:07.373Z,99.99
2023-05-10T10:37:07.409Z,99.99
2023-05-10T10:38:07.371Z,99.99
2023-05-10T10:39:07.372Z,99.99
2023-05-10T10:40:07.369Z,99.99
2023-05-10T10:41:07.365Z,99.99
2023-05-10T10:42:07.360Z,99.99
2023-05-10T10:43:07.370Z,99.99
2023-05-10T10:44:07.358Z,99.99
2023-05-10T10:45:07.368Z,99.99
2023-05-10T10:46:07.355Z,99.99
2023-05-10T10:47:07.455Z,99.99
2023-05-10T10:48:07.387Z,99.99
2023-05-10T10:49:07.364Z,99.99
2023-05-10T10:50:07.354Z,99.99
2023-05-10T10:51:07.391Z,99.99
2023-05-10T10:52:07.350Z,99.99
2023-05-10T10:53:07.391Z,99.99
2023-05-10T10:54:07.348Z,99.99
2023-05-10T10:55:07.351Z,99.99
2023-05-10T10:56:07.543Z,99.99
2023-05-10T10:57:07.340Z,99.99
2023-05-10T10:58:07.347Z,99.99
2023-05-10T10:59:07.340Z,99.99
2023-05-10T11:00:07.333Z,99.99
2023-05-10T11:01:07.390Z,99.99
2023-05-10T11:02:07.328Z,99.54
2023-05-10T11:03:07.546Z,99.38
2023-05-10T11:04:07.368Z,99.18
2023-05-10T11:05:07.328Z,99.38
2023-05-10T11:06:07.325Z,99.95
2023-05-10T11:07:07.339Z,99.33
2023-05-10T11:08:07.321Z,99.44
2023-05-10T11:09:07.331Z,99.85
2023-05-10T11:10:07.316Z,99.49
2023-05-10T11:11:07.315Z,99.18
2023-05-10T11:12:07.310Z,98.97
2023-05-10T11:13:07.312Z,99.28
2023-05-10T11:14:07.333Z,98.88
2023-05-10T11:15:07.322Z,99.38
2023-05-10T11:16:07.478Z,99.49
2023-05-10T11:17:07.365Z,99.58
2023-05-10T11:18:07.323Z,99.58
2023-05-10T11:19:07.504Z,98.97
2023-05-10T11:20:07.301Z,99.08
2023-05-10T11:21:07.296Z,99.08
2023-05-10T11:22:07.316Z,98.97
2023-05-10T11:23:07.319Z,99.38
2023-05-10T11:24:07.356Z,99.49
2023-05-10T11:25:07.302Z,99.49
2023-05-10T11:26:07.287Z,99.53
2023-05-10T11:27:07.284Z,99.79
2023-05-10T11:28:07.288Z,99.69
2023-05-10T11:29:07.299Z,99.84
2023-05-10T11:30:07.285Z,99.74
2023-05-10T11:31:07.381Z,99.13
2023-05-10T11:32:07.281Z,99.33
2023-05-10T11:33:07.310Z,99.43
2023-05-10T11:34:07.272Z,99.49
2023-05-10T11:35:07.275Z,99.49
2023-05-10T11:36:07.272Z,99.33
2023-05-10T11:37:07.269Z,99.13
2023-05-10T11:38:07.269Z,99.22
2023-05-10T11:39:07.286Z,99.74
2023-05-10T11:40:07.266Z,99.58
2023-05-10T11:41:07.266Z,99.99
2023-05-10T11:42:07.269Z,99.99
2023-05-10T11:43:07.262Z,99.79
2023-05-10T11:44:07.260Z,99.63
2023-05-10T11:45:07.261Z,99.43
2023-05-10T11:46:07.277Z,99.58
2023-05-10T11:47:07.262Z,99.53
2023-05-10T11:48:07.319Z,99.43
2023-05-10T11:49:07.261Z,99.49
2023-05-10T11:50:07.250Z,99.99
2023-05-10T11:51:07.268Z,99.99
2023-05-10T11:52:07.277Z,99.69
2023-05-10T11:53:07.250Z,99.99
2023-05-10T11:54:07.249Z,99.99
2023-05-10T11:55:07.273Z,99.99
2023-05-10T11:56:07.459Z,99.99
2023-05-10T11:57:07.241Z,99.89
2023-05-10T11:58:07.237Z,99.99
2023-05-10T11:59:07.236Z,99.79
2023-05-10T12:00:07.236Z,99.99
2023-05-10T12:01:07.252Z,99.89
2023-05-10T12:02:07.240Z,99.58
2023-05-10T12:03:07.300Z,99.79
2023-05-10T12:04:07.449Z,99.99
2023-05-10T12:05:07.271Z,99.69
2023-05-10T12:06:07.228Z,99.24
2023-05-10T12:07:07.227Z,99.49
2023-05-10T12:08:07.224Z,99.54
2023-05-10T12:09:07.223Z,99.04
2023-05-10T12:10:07.226Z,99.04
2023-05-10T12:11:07.246Z,99.13
2023-05-10T12:12:07.212Z,99.08
2023-05-10T12:13:07.212Z,99.33
2023-05-10T12:14:07.214Z,99.64
2023-05-10T12:15:07.228Z,99.74
2023-05-10T12:16:07.256Z,99.99
2023-05-10T12:17:07.217Z,99.99
2023-05-10T12:18:07.237Z,99.99
2023-05-10T12:19:07.256Z,99.99
2023-05-10T12:20:07.202Z,99.99
2023-05-10T12:21:07.208Z,99.69
2023-05-10T12:22:07.203Z,99.04
2023-05-10T12:23:07.201Z,98.93
2023-05-10T12:24:07.193Z,98.79
2023-05-10T12:25:07.195Z,99.19
2023-05-10T12:26:07.195Z,97.87
2023-05-10T12:27:07.215Z,98.18
2023-05-10T12:28:07.190Z,97.77
2023-05-10T12:29:07.186Z,98.23
2023-05-10T12:30:07.192Z,98.63
2023-05-10T12:31:07.194Z,98.58
2023-05-10T12:32:07.214Z,97.87
2023-05-10T12:33:07.263Z,97.87
2023-05-10T12:34:07.180Z,98.58
2023-05-10T12:35:07.185Z,99.19
2023-05-10T12:36:07.177Z,99.19
2023-05-10T12:37:07.185Z,98.68
2023-05-10T12:38:07.171Z,98.83
2023-05-10T12:39:07.180Z,98.22
2023-05-10T12:40:07.181Z,97.92
2023-05-10T12:41:07.232Z,97.67
2023-05-10T12:42:07.183Z,96.90
2023-05-10T12:43:07.188Z,96.80
2023-05-10T12:44:07.177Z,97.00
2023-05-10T12:45:07.171Z,97.31
2023-05-10T12:46:07.228Z,97.31
2023-05-10T12:47:07.277Z,97.92
2023-05-10T12:48:07.193Z,97.92
2023-05-10T12:49:09.348Z,98.28
2023-05-10T12:50:07.162Z,98.38
2023-05-10T12:51:07.156Z,97.92
2023-05-10T12:52:07.173Z,98.02